createdAt,value
2017-12-21T00:02:26.341Z,32.70
2017-12-21T00:04:54.015Z,39.60
2017-12-21T00:07:21.682Z,42.73
2017-12-21T00:09:49.327Z,35.43
2017-12-21T00:12:17.113Z,37.40
2017-12-21T00:14:44.747Z,30.67
2017-12-21T00:17:12.436Z,39.80
2017-12-21T00:19:40.077Z,44.83
2017-12-21T00:22:07.708Z,44.50
2017-12-21T00:24:35.417Z,37.63
2017-12-21T00:27:03.097Z,33.67
2017-12-21T00:29:30.789Z,34.33
2017-12-21T00:31:58.430Z,36.90
2017-12-21T00:34:26.134Z,34.63
2017-12-21T00:36:53.834Z,49.07
2017-12-21T00:39:21.507Z,50.47
2017-12-21T00:41:49.147Z,68.67
2017-12-21T00:44:16.840Z,53.47
2017-12-21T00:46:44.717Z,41.07
2017-12-21T00:49:12.406Z,40.10
2017-12-21T00:51:40.032Z,62.13
2017-12-21T00:54:07.726Z,54.37
2017-12-21T00:56:35.414Z,46.00
2017-12-21T00:59:03.117Z,47.80
2017-12-21T01:01:30.798Z,42.93
2017-12-21T01:03:58.473Z,31.83
2017-12-21T01:06:26.603Z,35.27
2017-12-21T01:08:54.352Z,37.20
2017-12-21T01:11:22.003Z,35.17
2017-12-21T01:13:49.743Z,25.57
2017-12-21T01:16:17.385Z,36.10
2017-12-21T01:18:45.131Z,28.80
2017-12-21T01:21:12.824Z,31.97
2017-12-21T01:23:40.575Z,30.30
2017-12-21T01:26:08.589Z,25.80
2017-12-21T01:28:36.342Z,24.20
2017-12-21T01:31:04.037Z,25.20
2017-12-21T01:33:31.703Z,29.07
2017-12-21T01:35:59.398Z,33.40
2017-12-21T01:38:27.140Z,37.40
2017-12-21T01:40:54.828Z,30.30
2017-12-21T01:43:22.558Z,32.27
2017-12-21T01:45:50.257Z,34.70
2017-12-21T01:48:17.998Z,41.00
2017-12-21T01:50:45.632Z,27.23
2017-12-21T01:53:13.368Z,38.63
2017-12-21T01:55:41.069Z,36.43
2017-12-21T01:58:08.819Z,39.67
2017-12-21T02:00:36.864Z,32.73
2017-12-21T02:03:04.579Z,32.90
2017-12-21T02:05:32.246Z,29.23
2017-12-21T02:07:59.964Z,26.80
2017-12-21T02:10:27.658Z,26.20
2017-12-21T02:12:55.296Z,28.50
2017-12-21T02:15:23.035Z,25.40
2017-12-21T02:17:50.740Z,27.50
2017-12-21T02:20:18.418Z,18.20
2017-12-21T02:22:46.174Z,24.30
2017-12-21T02:25:13.985Z,33.87
2017-12-21T02:27:41.680Z,29.20
2017-12-21T02:30:09.457Z,31.53
2017-12-21T02:32:37.162Z,24.67
2017-12-21T02:35:04.863Z,27.20
2017-12-21T02:37:32.512Z,23.17
2017-12-21T02:40:00.253Z,27.17
2017-12-21T02:42:27.952Z,24.80
2017-12-21T02:44:55.638Z,23.63
2017-12-21T02:47:23.344Z,28.30
2017-12-21T02:49:51.031Z,19.77
2017-12-21T02:52:18.731Z,26.33
2017-12-21T02:54:46.489Z,19.63
2017-12-21T02:57:14.242Z,26.53
2017-12-21T02:59:42.060Z,25.33
2017-12-21T03:02:09.795Z,23.40
2017-12-21T03:04:37.557Z,21.93
2017-12-21T03:07:05.204Z,20.83
2017-12-21T03:09:32.981Z,20.37
2017-12-21T03:12:00.702Z,21.87
2017-12-21T03:14:28.382Z,17.23
2017-12-21T03:16:56.096Z,18.60
2017-12-21T03:19:23.874Z,14.93
2017-12-21T03:21:51.592Z,17.73
2017-12-21T03:24:19.328Z,22.57
2017-12-21T03:26:47.021Z,18.10
2017-12-21T03:29:14.747Z,17.77
2017-12-21T03:31:42.752Z,17.47
2017-12-21T03:34:10.495Z,16.67
2017-12-21T03:36:38.194Z,18.00
2017-12-21T03:39:05.977Z,19.40
2017-12-21T03:41:33.667Z,20.77
2017-12-21T03:44:01.376Z,17.97
2017-12-21T03:46:29.123Z,19.00
2017-12-21T03:48:57.164Z,18.00
2017-12-21T03:51:24.902Z,17.87
2017-12-21T03:53:52.545Z,21.57
2017-12-21T03:56:20.346Z,19.50
2017-12-21T03:58:48.185Z,21.90
2017-12-21T04:01:15.979Z,18.43
2017-12-21T04:03:44.075Z,21.90
2017-12-21T04:06:11.737Z,19.43
2017-12-21T04:08:39.712Z,18.80
2017-12-21T04:11:07.476Z,17.37
2017-12-21T04:13:35.169Z,20.07
2017-12-21T04:16:02.828Z,21.53
2017-12-21T04:18:30.533Z,18.03
2017-12-21T04:20:58.215Z,18.50
2017-12-21T04:23:25.916Z,15.43
2017-12-21T04:25:53.645Z,25.10
2017-12-21T04:28:21.328Z,19.77
2017-12-21T04:30:49.001Z,16.70
2017-12-21T04:33:16.656Z,16.37
2017-12-21T04:35:44.399Z,15.33
2017-12-21T04:38:12.093Z,13.77
2017-12-21T04:40:39.817Z,15.57
2017-12-21T04:43:07.509Z,15.63
2017-12-21T04:45:35.241Z,13.80
2017-12-21T04:48:02.957Z,16.87
2017-12-21T04:50:30.628Z,15.57
2017-12-21T04:52:58.249Z,16.40
2017-12-21T04:55:25.925Z,16.97
2017-12-21T04:57:53.635Z,15.40
2017-12-21T05:00:21.441Z,16.30
2017-12-21T05:02:49.148Z,18.47
2017-12-21T05:05:16.826Z,15.20
2017-12-21T05:07:44.453Z,14.50
2017-12-21T05:10:12.210Z,14.07
2017-12-21T05:12:39.926Z,15.07
2017-12-21T05:15:07.603Z,15.07
2017-12-21T05:17:35.320Z,15.70
2017-12-21T05:20:03.007Z,15.97
2017-12-21T05:22:30.689Z,16.27
2017-12-21T05:24:58.414Z,19.83
2017-12-21T05:27:26.177Z,14.77
2017-12-21T05:29:53.918Z,15.13
2017-12-21T05:32:21.655Z,21.90
2017-12-21T05:34:49.314Z,17.10
2017-12-21T05:37:16.977Z,17.40
2017-12-21T05:39:44.633Z,18.67
2017-12-21T05:42:12.398Z,20.60
2017-12-21T05:44:40.054Z,16.23
2017-12-21T05:47:07.825Z,20.47
2017-12-21T05:49:35.532Z,17.00
2017-12-21T05:52:03.215Z,24.33
2017-12-21T05:54:30.952Z,36.93
2017-12-21T05:56:58.697Z,24.70
2017-12-21T05:59:26.501Z,12.37
2017-12-21T06:01:54.171Z,23.73
2017-12-21T06:04:21.845Z,16.80
2017-12-21T06:06:49.516Z,19.70
2017-12-21T06:09:17.185Z,21.97
2017-12-21T06:11:44.875Z,18.90
2017-12-21T06:14:12.549Z,23.40
2017-12-21T06:16:40.258Z,9.97
2017-12-21T06:19:07.960Z,17.20
2017-12-21T06:21:35.654Z,17.60
2017-12-21T06:24:03.313Z,27.27
2017-12-21T06:26:30.993Z,24.90
2017-12-21T06:28:58.655Z,21.50
2017-12-21T06:31:26.405Z,23.63
2017-12-21T06:33:54.167Z,21.43
2017-12-21T06:36:21.929Z,25.97
2017-12-21T06:38:49.663Z,18.23
2017-12-21T06:41:17.335Z,20.63
2017-12-21T06:43:45.117Z,18.27
2017-12-21T06:46:12.805Z,20.40
2017-12-21T06:48:40.557Z,16.77
2017-12-21T06:51:08.241Z,16.77
2017-12-21T06:53:36.015Z,17.37
2017-12-21T06:56:03.763Z,21.77
2017-12-21T06:58:31.499Z,14.13
2017-12-21T07:00:59.281Z,16.03
2017-12-21T07:03:27.030Z,15.00
2017-12-21T07:05:54.765Z,16.23
2017-12-21T07:08:22.535Z,15.20
2017-12-21T07:10:50.264Z,20.90
2017-12-21T07:13:18.066Z,17.00
2017-12-21T07:15:45.849Z,14.40
2017-12-21T07:18:13.608Z,13.77
2017-12-21T07:20:41.344Z,16.90
2017-12-21T07:23:09.048Z,17.93
2017-12-21T07:25:36.761Z,19.70
2017-12-21T07:28:04.449Z,21.87
2017-12-21T07:30:32.114Z,18.30
2017-12-21T07:32:59.858Z,17.93
2017-12-21T07:35:27.622Z,18.37
2017-12-21T07:37:55.369Z,21.47
2017-12-21T07:40:23.120Z,15.87
2017-12-21T07:42:50.805Z,13.90
2017-12-21T07:45:18.424Z,18.20
2017-12-21T07:47:46.168Z,16.33
2017-12-21T07:50:13.845Z,20.50
2017-12-21T07:52:41.592Z,17.20
2017-12-21T07:55:09.222Z,14.53
2017-12-21T07:57:36.896Z,18.40
2017-12-21T08:00:04.538Z,14.70
2017-12-21T08:02:32.212Z,17.57
2017-12-21T08:04:59.952Z,14.57
2017-12-21T08:07:27.625Z,15.53
2017-12-21T08:09:55.302Z,19.57
2017-12-21T08:12:22.978Z,22.40
2017-12-21T08:14:50.602Z,16.43
2017-12-21T08:17:18.280Z,18.57
2017-12-21T08:19:45.911Z,19.57
2017-12-21T08:22:13.652Z,20.17
2017-12-21T08:24:41.365Z,20.67
2017-12-21T08:27:09.074Z,20.03
2017-12-21T08:29:36.766Z,17.07
2017-12-21T08:32:04.453Z,19.60
2017-12-21T08:34:32.142Z,16.00
2017-12-21T08:36:59.841Z,13.57
2017-12-21T08:39:27.487Z,18.83
2017-12-21T08:41:55.183Z,13.20
2017-12-21T08:44:23.082Z,20.33
2017-12-21T08:46:50.730Z,17.17
2017-12-21T08:49:18.410Z,11.60
2017-12-21T08:51:46.046Z,12.97
2017-12-21T08:54:13.795Z,14.40
2017-12-21T08:56:41.550Z,17.27
2017-12-21T08:59:09.211Z,12.40
2017-12-21T09:01:36.872Z,16.77
2017-12-21T09:04:04.597Z,16.93
2017-12-21T09:06:32.266Z,15.80
2017-12-21T09:09:00.036Z,16.43
2017-12-21T09:11:28.061Z,19.07
2017-12-21T09:13:55.885Z,15.03
2017-12-21T09:16:23.666Z,12.53
2017-12-21T09:18:51.430Z,14.13
2017-12-21T09:21:19.103Z,11.27
2017-12-21T09:23:46.880Z,13.40
2017-12-21T09:26:14.606Z,11.17
2017-12-21T09:28:42.371Z,10.10
2017-12-21T09:31:10.060Z,11.50
2017-12-21T09:33:37.735Z,12.73
2017-12-21T09:36:05.428Z,11.37
2017-12-21T09:38:33.123Z,15.87
2017-12-21T09:41:00.817Z,8.43
2017-12-21T09:43:28.558Z,11.30
2017-12-21T09:45:56.265Z,11.47
2017-12-21T09:48:23.938Z,9.50
2017-12-21T09:50:51.660Z,13.83
2017-12-21T09:53:19.415Z,11.50
2017-12-21T09:55:47.112Z,10.50
2017-12-21T09:58:14.784Z,10.70
2017-12-21T10:00:42.944Z,9.53
2017-12-21T10:03:10.718Z,9.33
2017-12-21T10:05:38.430Z,11.40
2017-12-21T10:08:06.182Z,14.40
2017-12-21T10:10:33.895Z,13.37
2017-12-21T10:13:01.658Z,6.90
2017-12-21T10:15:29.364Z,9.77
2017-12-21T10:17:57.102Z,7.70
2017-12-21T10:20:24.833Z,9.80
2017-12-21T10:22:52.518Z,10.80
2017-12-21T10:25:20.290Z,14.37
2017-12-21T10:27:48.006Z,10.30
2017-12-21T10:30:15.764Z,12.90
2017-12-21T10:32:43.504Z,15.30
2017-12-21T10:35:11.269Z,16.43
2017-12-21T10:37:39.018Z,12.67
2017-12-21T10:40:06.832Z,12.90
2017-12-21T10:42:34.531Z,20.70
2017-12-21T10:45:02.220Z,23.37
2017-12-21T10:47:29.970Z,15.70
2017-12-21T10:49:57.696Z,6.87
2017-12-21T10:52:25.564Z,12.70
2017-12-21T10:54:53.306Z,12.57
2017-12-21T10:57:20.937Z,10.70
2017-12-21T10:59:48.616Z,10.47
2017-12-21T11:02:16.262Z,10.00
2017-12-21T11:04:43.945Z,9.10
2017-12-21T11:07:11.555Z,8.40
2017-12-21T11:09:39.236Z,9.40
2017-12-21T11:12:06.863Z,6.33
2017-12-21T11:14:34.545Z,8.40
2017-12-21T11:17:02.212Z,10.23
2017-12-21T11:19:29.912Z,6.97
2017-12-21T11:21:57.552Z,7.03
2017-12-21T11:24:25.222Z,6.40
2017-12-21T11:26:52.883Z,12.43
2017-12-21T11:29:20.561Z,8.37
2017-12-21T11:31:48.262Z,9.10
2017-12-21T11:34:15.969Z,7.20
2017-12-21T11:36:43.607Z,7.30
2017-12-21T11:39:11.312Z,11.67
2017-12-21T11:41:38.946Z,9.27
2017-12-21T11:44:06.625Z,7.30
2017-12-21T11:46:34.270Z,5.50
2017-12-21T11:49:01.957Z,9.47
2017-12-21T11:51:29.624Z,7.80
2017-12-21T11:53:57.409Z,9.07
2017-12-21T11:56:25.041Z,10.07
2017-12-21T11:58:52.806Z,12.83
2017-12-21T12:01:20.441Z,13.03
2017-12-21T12:03:48.101Z,14.63
2017-12-21T12:06:15.936Z,7.53
2017-12-21T12:08:43.632Z,8.30
2017-12-21T12:11:11.387Z,11.90
2017-12-21T12:13:39.088Z,10.20
2017-12-21T12:16:06.832Z,10.13
2017-12-21T12:18:34.521Z,8.80
2017-12-21T12:21:02.264Z,8.67
2017-12-21T12:23:29.907Z,9.50
2017-12-21T12:25:57.591Z,9.87
2017-12-21T12:28:25.279Z,9.50
2017-12-21T12:30:53.032Z,8.77
2017-12-21T12:33:20.749Z,8.10
2017-12-21T12:35:48.524Z,5.83
2017-12-21T12:38:16.208Z,9.23
2017-12-21T12:40:43.980Z,6.80
2017-12-21T12:43:11.611Z,10.00
2017-12-21T12:45:39.416Z,8.20
2017-12-21T12:48:07.198Z,8.33
2017-12-21T12:50:34.917Z,6.77
2017-12-21T12:53:02.604Z,8.27
2017-12-21T12:55:30.288Z,9.70
2017-12-21T12:57:57.972Z,8.87
2017-12-21T13:00:25.677Z,11.13
2017-12-21T13:02:53.443Z,11.73
2017-12-21T13:05:21.128Z,7.37
2017-12-21T13:07:48.902Z,6.50
2017-12-21T13:10:16.660Z,6.57
2017-12-21T13:12:44.342Z,8.03
2017-12-21T13:15:12.125Z,12.50
2017-12-21T13:17:39.856Z,10.13
2017-12-21T13:20:07.652Z,11.80
2017-12-21T13:22:35.394Z,9.30
2017-12-21T13:25:03.147Z,11.03
2017-12-21T13:27:30.942Z,7.10
2017-12-21T13:29:58.710Z,7.27
2017-12-21T13:32:26.437Z,10.27
2017-12-21T13:34:54.139Z,8.57
2017-12-21T13:37:21.888Z,13.77
2017-12-21T13:39:49.645Z,15.50
2017-12-21T13:42:17.389Z,8.07
2017-12-21T13:44:45.112Z,6.93
2017-12-21T13:47:12.774Z,8.30
2017-12-21T13:49:40.468Z,8.10
2017-12-21T13:52:08.203Z,13.63
2017-12-21T13:54:36.129Z,7.03
2017-12-21T13:57:03.870Z,9.53
2017-12-21T13:59:31.594Z,8.43
2017-12-21T14:01:59.418Z,9.40
2017-12-21T14:04:27.167Z,4.90
2017-12-21T14:06:54.903Z,5.80
2017-12-21T14:09:22.706Z,6.67
2017-12-21T14:11:50.478Z,12.33
2017-12-21T14:14:18.226Z,12.53
2017-12-21T14:16:45.897Z,7.70
2017-12-21T14:19:13.582Z,6.43
2017-12-21T14:21:41.333Z,8.07
2017-12-21T14:24:09.010Z,12.27
2017-12-21T14:26:36.759Z,11.03
2017-12-21T14:29:04.453Z,8.70
2017-12-21T14:31:32.144Z,6.67
2017-12-21T14:33:59.944Z,14.53
2017-12-21T14:36:27.642Z,7.37
2017-12-21T14:38:55.392Z,11.50
2017-12-21T14:41:23.136Z,15.20
2017-12-21T14:43:50.845Z,11.90
2017-12-21T14:46:18.586Z,3.87
2017-12-21T14:48:46.278Z,3.77
2017-12-21T14:51:14.003Z,4.73
2017-12-21T14:53:41.730Z,5.67
2017-12-21T14:56:09.458Z,5.57
2017-12-21T14:58:37.145Z,10.43
2017-12-21T15:01:04.922Z,5.97
2017-12-21T15:03:32.610Z,8.30
2017-12-21T15:06:00.360Z,7.00
2017-12-21T15:08:28.058Z,13.40
2017-12-21T15:10:55.801Z,4.63
2017-12-21T15:13:23.546Z,8.40
2017-12-21T15:15:51.226Z,13.40
2017-12-21T15:18:18.932Z,7.80
2017-12-21T15:20:46.689Z,5.40
2017-12-21T15:23:14.401Z,9.73
2017-12-21T15:25:42.103Z,12.60
2017-12-21T15:28:09.863Z,6.33
2017-12-21T15:30:37.571Z,9.07
2017-12-21T15:33:05.301Z,8.90
2017-12-21T15:35:32.999Z,14.53
2017-12-21T15:38:00.719Z,7.20
2017-12-21T15:40:28.396Z,8.90
2017-12-21T15:42:56.140Z,10.97
2017-12-21T15:45:23.763Z,7.77
2017-12-21T15:47:51.443Z,11.67
2017-12-21T15:50:19.099Z,10.00
2017-12-21T15:52:46.768Z,13.17
2017-12-21T15:55:14.397Z,6.73
2017-12-21T15:57:42.078Z,7.30
2017-12-21T16:00:09.735Z,16.77
2017-12-21T16:02:37.397Z,7.27
2017-12-21T16:05:06.114Z,9.43
2017-12-21T16:07:33.800Z,6.73
2017-12-21T16:10:01.445Z,8.67
2017-12-21T16:12:29.141Z,9.97
2017-12-21T16:14:56.984Z,12.83
2017-12-21T16:17:24.672Z,11.10
2017-12-21T16:19:52.294Z,14.60
2017-12-21T16:22:20.027Z,12.93
2017-12-21T16:24:47.656Z,7.57
2017-12-21T16:27:15.317Z,11.90
2017-12-21T16:29:42.947Z,10.27
2017-12-21T16:32:10.609Z,13.07
2017-12-21T16:34:38.252Z,9.90
2017-12-21T16:37:06.000Z,12.90
2017-12-21T16:39:33.712Z,16.60
2017-12-21T16:42:01.463Z,9.50
2017-12-21T16:44:29.164Z,16.33
2017-12-21T16:46:56.840Z,16.00
2017-12-21T16:49:24.497Z,11.90
2017-12-21T16:51:53.227Z,14.73
2017-12-21T16:54:22.746Z,11.30
2017-12-21T16:56:50.574Z,13.10
2017-12-21T16:59:18.245Z,13.90
2017-12-21T17:01:45.912Z,18.37
2017-12-21T17:04:13.555Z,23.00
2017-12-21T17:06:41.205Z,13.57
2017-12-21T17:09:08.893Z,15.63
2017-12-21T17:11:36.532Z,19.13
2017-12-21T17:14:04.210Z,18.73
2017-12-21T17:16:31.876Z,35.30
2017-12-21T17:18:59.656Z,20.03
2017-12-21T17:21:27.357Z,22.87
2017-12-21T17:23:55.015Z,17.67
2017-12-21T17:26:22.783Z,17.60
2017-12-21T17:28:50.620Z,21.90
2017-12-21T17:31:18.334Z,16.33
2017-12-21T17:33:46.054Z,19.43
2017-12-21T17:36:13.751Z,14.33
2017-12-21T17:38:41.422Z,16.57
2017-12-21T17:41:09.055Z,15.13
2017-12-21T17:43:36.791Z,13.93
2017-12-21T17:46:04.465Z,16.50
2017-12-21T17:48:32.144Z,20.97
2017-12-21T17:50:59.851Z,19.60
2017-12-21T17:53:27.590Z,23.70
2017-12-21T17:55:55.240Z,23.83
2017-12-21T17:58:22.920Z,16.60
2017-12-21T18:00:50.674Z,28.67
2017-12-21T18:03:18.396Z,19.50
2017-12-21T18:05:46.115Z,17.13
2017-12-21T18:08:13.895Z,24.43
2017-12-21T18:10:41.627Z,13.20
2017-12-21T18:13:09.413Z,13.27
2017-12-21T18:15:37.124Z,12.43
2017-12-21T18:18:04.906Z,12.00
2017-12-21T18:20:32.570Z,11.50
2017-12-21T18:23:00.258Z,12.47
2017-12-21T18:25:28.009Z,16.00
2017-12-21T18:27:55.741Z,14.57
2017-12-21T18:30:23.503Z,15.40
2017-12-21T18:32:51.249Z,12.70
2017-12-21T18:35:19.001Z,7.80
2017-12-21T18:37:46.745Z,10.70
2017-12-21T18:40:14.475Z,14.50
2017-12-21T18:42:42.223Z,14.87
2017-12-21T18:45:09.954Z,8.47
2017-12-21T18:47:37.652Z,15.30
2017-12-21T18:50:05.379Z,9.40
2017-12-21T18:52:33.111Z,16.23
2017-12-21T18:55:00.839Z,13.13
2017-12-21T18:57:28.481Z,14.87
2017-12-21T18:59:56.261Z,13.87
2017-12-21T19:02:23.900Z,18.23
2017-12-21T19:04:51.640Z,14.87
2017-12-21T19:07:19.336Z,15.57
2017-12-21T19:09:47.032Z,15.83
2017-12-21T19:12:14.721Z,13.50
2017-12-21T19:14:42.435Z,16.90
2017-12-21T19:17:10.073Z,14.13
2017-12-21T19:19:38.943Z,12.20
2017-12-21T19:22:06.690Z,12.00
2017-12-21T19:24:34.378Z,12.60
2017-12-21T19:27:02.428Z,13.30
2017-12-21T19:29:30.130Z,12.93
2017-12-21T19:32:14.318Z,14.43
2017-12-21T19:34:42.077Z,15.20
2017-12-21T19:37:09.764Z,14.10
2017-12-21T19:39:37.482Z,15.10
2017-12-21T19:42:05.210Z,15.07
2017-12-21T19:44:32.878Z,23.80
2017-12-21T19:47:00.542Z,19.50
2017-12-21T19:49:28.279Z,18.43
2017-12-21T19:51:55.918Z,19.87
2017-12-21T19:54:23.597Z,19.37
2017-12-21T19:56:51.260Z,16.70
2017-12-21T19:59:19.094Z,17.67
2017-12-21T20:01:46.790Z,19.60
2017-12-21T20:04:14.568Z,19.83
2017-12-21T20:06:42.316Z,24.23
2017-12-21T20:09:10.128Z,30.40
2017-12-21T20:11:37.899Z,20.90
2017-12-21T20:14:05.689Z,18.50
2017-12-21T20:16:33.364Z,16.70
2017-12-21T20:19:01.159Z,22.53
2017-12-21T20:21:28.920Z,24.93
2017-12-21T20:23:56.662Z,44.13
2017-12-21T20:26:24.504Z,54.17
2017-12-21T20:28:52.187Z,28.03
2017-12-21T20:31:19.859Z,21.07
2017-12-21T20:33:47.541Z,17.40
2017-12-21T20:36:15.159Z,24.90
2017-12-21T20:38:42.850Z,17.77
2017-12-21T20:41:10.585Z,24.33
2017-12-21T20:43:38.237Z,17.63
2017-12-21T20:46:06.156Z,23.27
2017-12-21T20:48:33.792Z,26.50
2017-12-21T20:51:01.532Z,19.50
2017-12-21T20:53:29.218Z,20.80
2017-12-21T20:55:56.964Z,19.67
2017-12-21T20:58:35.161Z,19.93
2017-12-21T21:01:20.340Z,15.17
2017-12-21T21:03:49.123Z,20.80
2017-12-21T21:06:26.749Z,17.60
2017-12-21T21:08:54.959Z,19.97
2017-12-21T21:11:22.684Z,18.20
2017-12-21T21:13:50.375Z,21.90
2017-12-21T21:16:18.146Z,22.87
2017-12-21T21:18:45.905Z,21.00
2017-12-21T21:21:13.668Z,23.10
2017-12-21T21:23:41.461Z,20.60
2017-12-21T21:26:09.268Z,19.13
2017-12-21T21:28:37.137Z,20.30
2017-12-21T21:31:04.829Z,18.00
2017-12-21T21:33:32.539Z,18.37
2017-12-21T21:36:00.415Z,16.70
2017-12-21T21:38:28.168Z,17.77
2017-12-21T21:40:55.907Z,18.97
2017-12-21T21:43:23.596Z,24.57
2017-12-21T21:45:51.408Z,18.67
2017-12-21T21:48:19.110Z,21.80
2017-12-21T21:50:46.843Z,17.73
2017-12-21T21:53:14.507Z,13.87
2017-12-21T21:55:42.267Z,14.90
2017-12-21T21:58:10.024Z,14.83
2017-12-21T22:00:37.767Z,13.93
2017-12-21T22:03:05.487Z,15.50
2017-12-21T22:05:33.287Z,16.30
2017-12-21T22:08:00.965Z,20.53
2017-12-21T22:10:28.788Z,16.10
2017-12-21T22:12:56.465Z,14.93
2017-12-21T22:15:24.205Z,14.10
2017-12-21T22:17:51.949Z,18.33
2017-12-21T22:20:19.684Z,15.60
2017-12-21T22:22:47.427Z,17.77
2017-12-21T22:25:15.156Z,13.60
2017-12-21T22:27:42.834Z,14.80
2017-12-21T22:30:10.555Z,16.23
2017-12-21T22:32:38.297Z,16.37
2017-12-21T22:35:06.038Z,19.10
2017-12-21T22:37:33.763Z,22.53
2017-12-21T22:40:01.493Z,13.10
2017-12-21T22:42:29.159Z,13.60
2017-12-21T22:44:56.925Z,19.73
2017-12-21T22:47:24.607Z,12.97
2017-12-21T22:49:52.338Z,17.80
2017-12-21T22:52:20.078Z,13.57
2017-12-21T22:54:47.706Z,17.13
2017-12-21T22:57:15.429Z,18.93
2017-12-21T22:59:43.095Z,13.50
2017-12-21T23:02:10.812Z,18.63
2017-12-21T23:04:38.480Z,21.33
2017-12-21T23:07:06.209Z,17.30
2017-12-21T23:09:34.763Z,15.13
2017-12-21T23:12:02.475Z,18.33
2017-12-21T23:14:30.143Z,16.37
2017-12-21T23:16:57.865Z,16.73
2017-12-21T23:19:25.567Z,19.93
2017-12-21T23:21:53.301Z,18.23
2017-12-21T23:24:20.992Z,21.43
2017-12-21T23:26:48.697Z,25.50
2017-12-21T23:29:16.323Z,19.57
2017-12-21T23:31:44.064Z,18.03
2017-12-21T23:34:11.720Z,20.70
2017-12-21T23:36:39.405Z,19.10
2017-12-21T23:39:07.087Z,22.00
2017-12-21T23:41:34.745Z,17.67
2017-12-21T23:44:02.448Z,19.20
2017-12-21T23:46:30.067Z,19.60
2017-12-21T23:48:57.772Z,22.63
2017-12-21T23:51:25.439Z,17.60
2017-12-21T23:53:53.127Z,23.47
2017-12-21T23:56:20.876Z,26.47
2017-12-21T23:58:48.552Z,20.20
